الصفحة الرئيسية
METAR-TAF:

METAR-TAF

مطار :

سان ديني, ريونيون

دائرة عرض: 20-53S, خط طول: 055-31E, ارتفاع: 21 متر

مراقبة الطقس الحالي

تاريخ ووقت الإصدار 29 دقيقة قبل الساعة 03:00UTC
ريح 12 عقدة من الشمال/الشمال الشرقي
درجة الحرارة 24°درجة مئوية
الرطوبة 74%
ضغط 1018 hPa
الرؤية 10 كم أو أكثر
غيوم مفككة على ارتفاع 3700 قدم
غيوم مفككة على ارتفاع 4800 قدم
ملبد بالغيوم على ارتفاع 6200 قدم

METAR: FMEE 230300Z AUTO 03012KT 9999 BKN037 BKN048 OVC062 24/19 Q1018 NOSIG

زمن: 07:29 (03:29 UTC)

توقعات

تاريخ ووقت الإصدار 4ساعات و 29 دقيقة قبل الساعة 23:00UTC
التوقعات صالحة من23 الساعة 00 UTC إلى 24 الساعة 06 UTC
ريح 10 عقدة من الجنوب/الجنوب الشرقي
الرؤية 10 كم أو أكثر
غيوم مفككة على ارتفاع 9400 قدم
أصبح
من 23 الساعة 00 UTC إلى 23 الساعة 02 UTC
ريح 3 عقدةمن اتجاهات متغيرة
زخات من الأمطار الخفيفة

TAF: FMEE 222300Z 2300/2406 15010KT 9999 BKN094 BECMG 2300/2302 VRB03KT -SHRA

أرصاد الطقس والتوقعات من أكثر من 4000 مطار (تقارير الطقس للمطار METAR والتنبؤ بالطقس بالمطارTAF).

المحطات المتاحة هي النقط الصفراء والحمراء على الخريطة.

حرك المؤشر فوق النقطة لمعرفة اسم المحطة.

ثم انقر لمعرفة أرصاد وتوقعات الطقس.

لتغيير الخارطة: اضغط على الأزرار الخضراء مع رمز الصليب الأسود للتكبير. على الزر الأخضر مع شرطة للتصغير، أو على الأسهم الخضراء للخرائط المجاورة.


METAR-TAF: